Accueil
METAR-TAF:

METAR-TAF

Aéroports :

Hagi, Japon

latitude: 34-40N, longitude: 131-48E, altitude: 54 m

Observation

Le bulletin a été fait il y a 12 heures et 5 minutes, à 10:00 UTC
Vent 7 kt de nord-est, variant entre nord/nord-ouest et est
Température 7°C
Humidité 53%
Pression 1027 hPa
Visibilité 10 km ou plus
Quelques nuages à une hauteur de 3000 ft
Nuages épars à une hauteur de 4500 ft

METAR: RJOW 271000Z 04007KT 340V090 9999 FEW030 SCT045 07/M02 Q1027

Heure: 07:05 (22:05 UTC)


TAF: absent

Observations et prévisions météorologiques de plus de 4000 aéroports (messages METAR et TAF).

Les stations disponibles sont représentées par des disques jaunes et rouges sur la carte.

Passer la souris dessus pour voir le nom de la station.

Cliquer dessus pour voir les observations et prévisions météorologiques.

Pour changer de carte: cliquez sur les boutons verts avec une croix noire pour zoomer, sur le bouton vert avec un tiret pour effectuer un zoom arrière, ou sur les flèches vertes pour les cartes adjacentes.


METAR-TAF: